EHWO/WOE METAR and TAF weather

Enter ICAO airport designator
Station Type Date Time Source
EHWO METAR 2019/12/13 22:25 UTC NOAA

EHWO 132225Z AUTO 22011KT 190V250 9999 OVC150 06/02 Q0983 BLU


Station Type Date Time Source
EHWO Decoded METAR 2019/12/13 22:25 UTC NOAA

Woensdrecht, Netherlands (EHWO) 51-27N 004-20E 17M
Dec 13, 2019 - 05:25 PM EST / 2019.12.13 2225 UTC
Wind: from the SW (220 degrees) at 13 MPH (11 KT) (direction variable):0
Visibility: greater than 7 mile(s):0
Sky conditions: overcast
Temperature: 42 F (6 C)
Dew Point: 35 F (2 C)
Relative Humidity: 75%
Pressure (altimeter): 29.03 in. Hg (0983 hPa)
ob: EHWO 132225Z AUTO 22011KT 190V250 9999 OVC150 06/02 Q0983 BLU
cycle: 22

Station Type Date Time Source
EHWO TAF 2019/12/13 10:51 UTC NOAA

TAF TAF EHWO 130909Z 1310/1322 27005KT 9000 BKN006
BECMG 1310/1312 28012G25KT
TEMPO 1310/1312 1500 DZ SCT001 BKN002
TEMPO 1312/1315 3000 DZRA SCT003 BKN004
BECMG 1314/1316 SCT018 BKN025

Example: see airport list